sensor_id;sensor_type;location;lat;lon;timestamp;P1;durP1;ratioP1;P2;durP2;ratioP2
10009;SDS011;5044;48.652;9.250;2022-08-18T00:02:01;3.70;;;3.17;;
10009;SDS011;5044;48.652;9.250;2022-08-18T00:04:30;3.15;;;2.85;;
10009;SDS011;5044;48.652;9.250;2022-08-18T00:06:59;3.45;;;3.03;;
10009;SDS011;5044;48.652;9.250;2022-08-18T00:09:27;2.80;;;2.60;;
10009;SDS011;5044;48.652;9.250;2022-08-18T00:11:54;4.40;;;2.88;;
10009;SDS011;5044;48.652;9.250;2022-08-18T00:14:23;3.03;;;2.80;;
10009;SDS011;5044;48.652;9.250;2022-08-18T00:16:52;3.00;;;2.70;;
10009;SDS011;5044;48.652;9.250;2022-08-18T00:19:20;4.55;;;2.95;;
10009;SDS011;5044;48.652;9.250;2022-08-18T00:21:47;4.57;;;2.78;;
10009;SDS011;5044;48.652;9.250;2022-08-18T00:24:15;4.05;;;2.92;;
10009;SDS011;5044;48.652;9.250;2022-08-18T00:26:43;3.08;;;2.75;;
10009;SDS011;5044;48.652;9.250;2022-08-18T00:29:10;4.20;;;2.60;;
10009;SDS011;5044;48.652;9.250;2022-08-18T00:31:37;3.75;;;2.72;;
10009;SDS011;5044;48.652;9.250;2022-08-18T00:34:07;3.42;;;2.95;;
10009;SDS011;5044;48.652;9.250;2022-08-18T00:36:34;3.85;;;3.05;;
10009;SDS011;5044;48.652;9.250;2022-08-18T00:39:02;4.30;;;3.10;;
10009;SDS011;5044;48.652;9.250;2022-08-18T00:41:30;3.15;;;2.63;;
10009;SDS011;5044;48.652;9.250;2022-08-18T00:43:57;3.00;;;2.30;;
10009;SDS011;5044;48.652;9.250;2022-08-18T00:46:25;3.13;;;2.78;;
10009;SDS011;5044;48.652;9.250;2022-08-18T00:48:58;3.08;;;2.63;;
10009;SDS011;5044;48.652;9.250;2022-08-18T00:51:28;3.13;;;2.60;;
10009;SDS011;5044;48.652;9.250;2022-08-18T00:54:05;3.33;;;2.95;;
10009;SDS011;5044;48.652;9.250;2022-08-18T00:56:37;3.45;;;3.15;;
10009;SDS011;5044;48.652;9.250;2022-08-18T00:59:09;7.20;;;3.00;;
10009;SDS011;5044;48.652;9.250;2022-08-18T01:01:41;4.43;;;3.08;;
10009;SDS011;5044;48.652;9.250;2022-08-18T01:04:14;4.07;;;2.83;;
10009;SDS011;5044;48.652;9.250;2022-08-18T01:06:47;3.75;;;2.60;;
10009;SDS011;5044;48.652;9.250;2022-08-18T01:09:19;3.97;;;2.58;;
10009;SDS011;5044;48.652;9.250;2022-08-18T01:11:46;3.80;;;3.08;;
10009;SDS011;5044;48.652;9.250;2022-08-18T01:14:13;3.45;;;2.70;;
10009;SDS011;5044;48.652;9.250;2022-08-18T01:16:42;3.70;;;2.92;;
10009;SDS011;5044;48.652;9.250;2022-08-18T01:19:27;3.00;;;2.70;;
10009;SDS011;5044;48.652;9.250;2022-08-18T01:22:14;3.05;;;2.42;;
10009;SDS011;5044;48.652;9.250;2022-08-18T01:24:49;4.00;;;2.67;;
10009;SDS011;5044;48.652;9.250;2022-08-18T01:27:35;3.45;;;2.78;;
10009;SDS011;5044;48.652;9.250;2022-08-18T01:30:06;3.30;;;2.53;;
10009;SDS011;5044;48.652;9.250;2022-08-18T01:32:36;3.75;;;2.95;;
10009;SDS011;5044;48.652;9.250;2022-08-18T01:35:05;3.92;;;2.85;;
10009;SDS011;5044;48.652;9.250;2022-08-18T01:37:35;4.10;;;2.97;;
10009;SDS011;5044;48.652;9.250;2022-08-18T01:40:06;4.82;;;4.00;;
10009;SDS011;5044;48.652;9.250;2022-08-18T01:45:02;3.85;;;2.70;;
10009;SDS011;5044;48.652;9.250;2022-08-18T01:47:31;3.22;;;2.85;;
10009;SDS011;5044;48.652;9.250;2022-08-18T01:50:03;4.75;;;2.75;;
10009;SDS011;5044;48.652;9.250;2022-08-18T01:52:31;3.88;;;3.17;;
10009;SDS011;5044;48.652;9.250;2022-08-18T01:54:59;3.53;;;3.22;;
10009;SDS011;5044;48.652;9.250;2022-08-18T01:57:28;3.95;;;3.30;;
10009;SDS011;5044;48.652;9.250;2022-08-18T01:59:57;3.50;;;2.70;;
10009;SDS011;5044;48.652;9.250;2022-08-18T02:02:25;4.32;;;3.47;;
10009;SDS011;5044;48.652;9.250;2022-08-18T02:04:58;3.35;;;3.05;;
10009;SDS011;5044;48.652;9.250;2022-08-18T02:07:29;3.40;;;2.50;;
10009;SDS011;5044;48.652;9.250;2022-08-18T02:09:56;4.82;;;3.38;;
10009;SDS011;5044;48.652;9.250;2022-08-18T02:12:22;3.13;;;2.53;;
10009;SDS011;5044;48.652;9.250;2022-08-18T02:14:52;3.08;;;2.58;;
10009;SDS011;5044;48.652;9.250;2022-08-18T02:17:19;3.65;;;2.60;;
10009;SDS011;5044;48.652;9.250;2022-08-18T02:19:46;3.13;;;2.78;;
10009;SDS011;5044;48.652;9.250;2022-08-18T02:22:14;3.88;;;3.22;;
10009;SDS011;5044;48.652;9.250;2022-08-18T02:24:43;3.75;;;2.40;;
10009;SDS011;5044;48.652;9.250;2022-08-18T02:27:11;3.70;;;2.78;;
10009;SDS011;5044;48.652;9.250;2022-08-18T02:29:40;4.57;;;2.88;;
10009;SDS011;5044;48.652;9.250;2022-08-18T02:32:09;3.88;;;2.40;;
10009;SDS011;5044;48.652;9.250;2022-08-18T02:34:36;3.22;;;2.80;;
10009;SDS011;5044;48.652;9.250;2022-08-18T02:37:04;3.28;;;2.97;;
10009;SDS011;5044;48.652;9.250;2022-08-18T02:39:32;4.03;;;2.88;;
10009;SDS011;5044;48.652;9.250;2022-08-18T02:42:02;4.75;;;2.80;;
10009;SDS011;5044;48.652;9.250;2022-08-18T02:44:29;3.22;;;2.72;;
10009;SDS011;5044;48.652;9.250;2022-08-18T02:46:56;3.40;;;3.08;;
10009;SDS011;5044;48.652;9.250;2022-08-18T02:49:26;3.20;;;2.90;;
10009;SDS011;5044;48.652;9.250;2022-08-18T02:51:53;3.72;;;3.00;;
10009;SDS011;5044;48.652;9.250;2022-08-18T02:54:21;2.63;;;2.42;;
10009;SDS011;5044;48.652;9.250;2022-08-18T02:56:49;3.25;;;2.60;;
10009;SDS011;5044;48.652;9.250;2022-08-18T02:59:20;2.85;;;2.60;;
10009;SDS011;5044;48.652;9.250;2022-08-18T03:01:49;3.80;;;3.15;;
10009;SDS011;5044;48.652;9.250;2022-08-18T03:04:18;3.90;;;3.08;;
10009;SDS011;5044;48.652;9.250;2022-08-18T03:06:48;3.63;;;3.33;;
10009;SDS011;5044;48.652;9.250;2022-08-18T03:09:17;3.75;;;2.55;;
10009;SDS011;5044;48.652;9.250;2022-08-18T03:11:44;3.75;;;2.58;;
10009;SDS011;5044;48.652;9.250;2022-08-18T03:14:11;5.63;;;3.30;;
10009;SDS011;5044;48.652;9.250;2022-08-18T03:16:40;4.07;;;3.08;;
10009;SDS011;5044;48.652;9.250;2022-08-18T03:19:25;3.95;;;3.25;;
10009;SDS011;5044;48.652;9.250;2022-08-18T03:21:55;2.58;;;2.38;;
10009;SDS011;5044;48.652;9.250;2022-08-18T03:24:24;5.00;;;3.33;;
10009;SDS011;5044;48.652;9.250;2022-08-18T03:26:52;6.28;;;3.50;;
10009;SDS011;5044;48.652;9.250;2022-08-18T03:29:21;4.97;;;2.90;;
10009;SDS011;5044;48.652;9.250;2022-08-18T03:31:49;4.15;;;3.28;;
10009;SDS011;5044;48.652;9.250;2022-08-18T03:34:17;3.45;;;2.63;;
10009;SDS011;5044;48.652;9.250;2022-08-18T03:36:46;3.53;;;3.22;;
10009;SDS011;5044;48.652;9.250;2022-08-18T03:39:16;3.67;;;2.80;;
10009;SDS011;5044;48.652;9.250;2022-08-18T03:41:44;3.63;;;3.00;;
10009;SDS011;5044;48.652;9.250;2022-08-18T03:44:11;3.20;;;2.53;;
10009;SDS011;5044;48.652;9.250;2022-08-18T03:46:39;2.90;;;2.60;;
10009;SDS011;5044;48.652;9.250;2022-08-18T03:49:08;4.47;;;2.80;;
10009;SDS011;5044;48.652;9.250;2022-08-18T03:51:36;4.68;;;2.75;;
10009;SDS011;5044;48.652;9.250;2022-08-18T03:54:04;2.70;;;2.45;;
10009;SDS011;5044;48.652;9.250;2022-08-18T03:56:35;3.22;;;2.78;;
10009;SDS011;5044;48.652;9.250;2022-08-18T03:59:05;3.35;;;2.95;;
10009;SDS011;5044;48.652;9.250;2022-08-18T04:01:35;4.32;;;2.92;;
10009;SDS011;5044;48.652;9.250;2022-08-18T04:04:05;2.53;;;2.33;;
10009;SDS011;5044;48.652;9.250;2022-08-18T04:06:35;2.92;;;2.38;;
10009;SDS011;5044;48.652;9.250;2022-08-18T04:09:04;4.03;;;2.20;;
10009;SDS011;5044;48.652;9.250;2022-08-18T04:11:35;2.83;;;2.15;;
10009;SDS011;5044;48.652;9.250;2022-08-18T04:14:04;3.22;;;2.40;;
10009;SDS011;5044;48.652;9.250;2022-08-18T04:16:32;4.38;;;3.08;;
10009;SDS011;5044;48.652;9.250;2022-08-18T04:19:00;2.97;;;2.67;;
10009;SDS011;5044;48.652;9.250;2022-08-18T04:21:28;3.95;;;3.03;;
10009;SDS011;5044;48.652;9.250;2022-08-18T04:23:57;3.38;;;2.90;;
10009;SDS011;5044;48.652;9.250;2022-08-18T04:26:29;3.13;;;2.80;;
10009;SDS011;5044;48.652;9.250;2022-08-18T04:28:58;3.08;;;2.78;;
10009;SDS011;5044;48.652;9.250;2022-08-18T04:31:27;3.90;;;2.75;;
10009;SDS011;5044;48.652;9.250;2022-08-18T04:33:55;3.63;;;2.60;;
10009;SDS011;5044;48.652;9.250;2022-08-18T04:36:23;3.13;;;2.83;;
10009;SDS011;5044;48.652;9.250;2022-08-18T04:38:51;4.85;;;3.10;;
10009;SDS011;5044;48.652;9.250;2022-08-18T04:41:19;3.72;;;2.92;;
10009;SDS011;5044;48.652;9.250;2022-08-18T04:43:50;3.05;;;2.75;;
10009;SDS011;5044;48.652;9.250;2022-08-18T04:46:19;3.30;;;2.95;;
10009;SDS011;5044;48.652;9.250;2022-08-18T04:48:46;4.30;;;3.00;;
10009;SDS011;5044;48.652;9.250;2022-08-18T04:51:15;4.07;;;2.78;;
10009;SDS011;5044;48.652;9.250;2022-08-18T04:53:45;5.68;;;2.63;;
10009;SDS011;5044;48.652;9.250;2022-08-18T04:56:13;3.70;;;2.85;;
10009;SDS011;5044;48.652;9.250;2022-08-18T04:58:45;4.13;;;3.20;;
10009;SDS011;5044;48.652;9.250;2022-08-18T05:01:16;4.18;;;2.80;;
10009;SDS011;5044;48.652;9.250;2022-08-18T05:03:47;4.93;;;2.88;;
10009;SDS011;5044;48.652;9.250;2022-08-18T05:06:15;2.85;;;2.53;;
10009;SDS011;5044;48.652;9.250;2022-08-18T05:08:44;3.63;;;2.97;;
10009;SDS011;5044;48.652;9.250;2022-08-18T05:11:12;3.55;;;2.75;;
10009;SDS011;5044;48.652;9.250;2022-08-18T05:13:40;3.17;;;2.88;;
10009;SDS011;5044;48.652;9.250;2022-08-18T05:16:07;2.42;;;2.22;;
10009;SDS011;5044;48.652;9.250;2022-08-18T05:18:35;2.85;;;2.63;;
10009;SDS011;5044;48.652;9.250;2022-08-18T05:21:06;3.47;;;3.03;;
10009;SDS011;5044;48.652;9.250;2022-08-18T05:23:38;3.78;;;2.97;;
10009;SDS011;5044;48.652;9.250;2022-08-18T05:26:05;4.15;;;3.20;;
10009;SDS011;5044;48.652;9.250;2022-08-18T05:28:33;5.63;;;3.30;;
10009;SDS011;5044;48.652;9.250;2022-08-18T05:31:04;3.47;;;2.83;;
10009;SDS011;5044;48.652;9.250;2022-08-18T05:36:03;3.92;;;3.08;;
10009;SDS011;5044;48.652;9.250;2022-08-18T05:38:36;6.47;;;3.63;;
10009;SDS011;5044;48.652;9.250;2022-08-18T05:41:08;5.03;;;3.60;;
10009;SDS011;5044;48.652;9.250;2022-08-18T05:43:38;4.40;;;3.17;;
10009;SDS011;5044;48.652;9.250;2022-08-18T05:46:06;4.65;;;3.40;;
10009;SDS011;5044;48.652;9.250;2022-08-18T05:48:35;3.97;;;3.03;;
10009;SDS011;5044;48.652;9.250;2022-08-18T05:51:13;4.30;;;3.42;;
10009;SDS011;5044;48.652;9.250;2022-08-18T05:53:44;3.42;;;2.90;;
10009;SDS011;5044;48.652;9.250;2022-08-18T05:56:30;5.07;;;3.60;;
10009;SDS011;5044;48.652;9.250;2022-08-18T05:59:17;3.78;;;3.22;;
10009;SDS011;5044;48.652;9.250;2022-08-18T06:01:50;4.60;;;3.30;;
10009;SDS011;5044;48.652;9.250;2022-08-18T06:04:23;4.35;;;3.60;;
10009;SDS011;5044;48.652;9.250;2022-08-18T06:06:57;4.80;;;3.28;;
10009;SDS011;5044;48.652;9.250;2022-08-18T06:09:33;5.57;;;3.00;;
10009;SDS011;5044;48.652;9.250;2022-08-18T06:12:18;4.28;;;3.33;;
10009;SDS011;5044;48.652;9.250;2022-08-18T06:14:51;5.03;;;3.67;;
10009;SDS011;5044;48.652;9.250;2022-08-18T06:17:39;3.85;;;3.47;;
10009;SDS011;5044;48.652;9.250;2022-08-18T06:20:31;4.78;;;3.70;;
10009;SDS011;5044;48.652;9.250;2022-08-18T06:23:09;4.28;;;3.30;;
10009;SDS011;5044;48.652;9.250;2022-08-18T06:25:56;3.30;;;2.97;;
10009;SDS011;5044;48.652;9.250;2022-08-18T06:28:37;4.18;;;3.60;;
10009;SDS011;5044;48.652;9.250;2022-08-18T06:31:12;7.82;;;3.88;;
10009;SDS011;5044;48.652;9.250;2022-08-18T06:37:40;5.38;;;3.90;;
10009;SDS011;5044;48.652;9.250;2022-08-18T06:40:27;4.22;;;3.00;;
10009;SDS011;5044;48.652;9.250;2022-08-18T06:42:56;4.80;;;4.10;;
10009;SDS011;5044;48.652;9.250;2022-08-18T06:45:27;3.95;;;2.78;;
10009;SDS011;5044;48.652;9.250;2022-08-18T06:48:00;3.88;;;3.33;;
10009;SDS011;5044;48.652;9.250;2022-08-18T06:50:38;4.18;;;3.67;;
10009;SDS011;5044;48.652;9.250;2022-08-18T06:53:14;3.33;;;2.88;;
10009;SDS011;5044;48.652;9.250;2022-08-18T06:55:42;7.10;;;3.63;;
10009;SDS011;5044;48.652;9.250;2022-08-18T06:58:20;4.68;;;3.97;;
10009;SDS011;5044;48.652;9.250;2022-08-18T07:00:55;5.57;;;4.40;;
10009;SDS011;5044;48.652;9.250;2022-08-18T07:03:39;3.63;;;3.33;;
10009;SDS011;5044;48.652;9.250;2022-08-18T07:06:09;5.15;;;4.43;;
10009;SDS011;5044;48.652;9.250;2022-08-18T07:08:49;5.60;;;3.85;;
10009;SDS011;5044;48.652;9.250;2022-08-18T07:11:18;6.00;;;3.47;;
10009;SDS011;5044;48.652;9.250;2022-08-18T07:13:49;4.93;;;4.10;;
10009;SDS011;5044;48.652;9.250;2022-08-18T07:16:23;6.70;;;4.20;;
10009;SDS011;5044;48.652;9.250;2022-08-18T07:19:05;3.92;;;3.53;;
10009;SDS011;5044;48.652;9.250;2022-08-18T07:21:34;4.32;;;3.92;;
10009;SDS011;5044;48.652;9.250;2022-08-18T07:24:05;5.60;;;3.53;;
10009;SDS011;5044;48.652;9.250;2022-08-18T07:29:27;5.80;;;3.40;;
10009;SDS011;5044;48.652;9.250;2022-08-18T07:31:56;5.38;;;4.75;;
10009;SDS011;5044;48.652;9.250;2022-08-18T07:34:27;4.82;;;3.58;;
10009;SDS011;5044;48.652;9.250;2022-08-18T07:37:02;3.92;;;3.42;;
10009;SDS011;5044;48.652;9.250;2022-08-18T07:39:34;4.15;;;3.40;;
10009;SDS011;5044;48.652;9.250;2022-08-18T07:42:05;5.10;;;4.10;;
10009;SDS011;5044;48.652;9.250;2022-08-18T07:44:41;4.55;;;4.15;;
10009;SDS011;5044;48.652;9.250;2022-08-18T07:47:13;4.18;;;3.03;;
10009;SDS011;5044;48.652;9.250;2022-08-18T07:49:44;5.78;;;3.55;;
10009;SDS011;5044;48.652;9.250;2022-08-18T07:52:14;3.45;;;2.85;;
10009;SDS011;5044;48.652;9.250;2022-08-18T07:54:47;4.53;;;3.05;;
10009;SDS011;5044;48.652;9.250;2022-08-18T07:57:27;3.13;;;2.83;;
10009;SDS011;5044;48.652;9.250;2022-08-18T08:00:09;4.03;;;3.22;;
10009;SDS011;5044;48.652;9.250;2022-08-18T08:02:45;6.45;;;4.60;;
10009;SDS011;5044;48.652;9.250;2022-08-18T08:05:28;4.53;;;3.03;;
10009;SDS011;5044;48.652;9.250;2022-08-18T08:08:14;4.30;;;3.42;;
10009;SDS011;5044;48.652;9.250;2022-08-18T08:10:48;3.60;;;3.10;;
10009;SDS011;5044;48.652;9.250;2022-08-18T08:13:29;8.13;;;4.00;;
10009;SDS011;5044;48.652;9.250;2022-08-18T08:16:11;5.43;;;3.60;;
10009;SDS011;5044;48.652;9.250;2022-08-18T08:18:50;4.53;;;4.13;;
10009;SDS011;5044;48.652;9.250;2022-08-18T08:21:23;5.13;;;3.95;;
10009;SDS011;5044;48.652;9.250;2022-08-18T08:23:55;5.15;;;3.78;;
10009;SDS011;5044;48.652;9.250;2022-08-18T08:26:35;5.45;;;3.67;;
10009;SDS011;5044;48.652;9.250;2022-08-18T08:29:15;4.47;;;3.60;;
10009;SDS011;5044;48.652;9.250;2022-08-18T08:31:53;4.80;;;3.70;;
10009;SDS011;5044;48.652;9.250;2022-08-18T08:34:27;3.78;;;3.03;;
10009;SDS011;5044;48.652;9.250;2022-08-18T08:36:59;4.80;;;4.20;;
10009;SDS011;5044;48.652;9.250;2022-08-18T08:39:31;3.85;;;2.85;;
10009;SDS011;5044;48.652;9.250;2022-08-18T08:42:04;4.32;;;3.38;;
10009;SDS011;5044;48.652;9.250;2022-08-18T08:44:38;7.32;;;5.05;;
10009;SDS011;5044;48.652;9.250;2022-08-18T08:47:14;5.65;;;5.05;;
10009;SDS011;5044;48.652;9.250;2022-08-18T08:49:46;6.50;;;4.85;;
10009;SDS011;5044;48.652;9.250;2022-08-18T08:52:18;6.05;;;4.35;;
10009;SDS011;5044;48.652;9.250;2022-08-18T08:54:50;5.82;;;5.22;;
10009;SDS011;5044;48.652;9.250;2022-08-18T08:57:19;7.57;;;6.20;;
10009;SDS011;5044;48.652;9.250;2022-08-18T08:59:51;5.32;;;4.70;;
10009;SDS011;5044;48.652;9.250;2022-08-18T09:02:32;6.28;;;4.80;;
10009;SDS011;5044;48.652;9.250;2022-08-18T09:05:09;6.78;;;5.53;;
10009;SDS011;5044;48.652;9.250;2022-08-18T09:13:10;6.43;;;4.82;;
10009;SDS011;5044;48.652;9.250;2022-08-18T09:15:59;6.47;;;5.03;;
10009;SDS011;5044;48.652;9.250;2022-08-18T09:18:41;4.82;;;4.32;;
10009;SDS011;5044;48.652;9.250;2022-08-18T09:21:26;8.77;;;5.93;;
10009;SDS011;5044;48.652;9.250;2022-08-18T09:24:04;14.27;;;5.80;;
10009;SDS011;5044;48.652;9.250;2022-08-18T09:26:43;9.50;;;6.07;;
10009;SDS011;5044;48.652;9.250;2022-08-18T09:29:17;8.52;;;6.47;;
10009;SDS011;5044;48.652;9.250;2022-08-18T09:31:47;10.88;;;5.78;;
10009;SDS011;5044;48.652;9.250;2022-08-18T09:34:41;4.70;;;4.20;;
10009;SDS011;5044;48.652;9.250;2022-08-18T09:37:17;8.70;;;6.28;;
10009;SDS011;5044;48.652;9.250;2022-08-18T09:39:51;8.43;;;6.25;;
10009;SDS011;5044;48.652;9.250;2022-08-18T09:42:45;10.38;;;6.38;;
10009;SDS011;5044;48.652;9.250;2022-08-18T09:45:40;6.10;;;5.50;;
10009;SDS011;5044;48.652;9.250;2022-08-18T09:48:24;6.53;;;5.70;;
10009;SDS011;5044;48.652;9.250;2022-08-18T09:54:07;7.00;;;5.93;;
10009;SDS011;5044;48.652;9.250;2022-08-18T10:05:58;10.32;;;6.65;;
10009;SDS011;5044;48.652;9.250;2022-08-18T10:08:52;6.43;;;5.47;;
10009;SDS011;5044;48.652;9.250;2022-08-18T10:11:40;8.20;;;6.43;;
10009;SDS011;5044;48.652;9.250;2022-08-18T10:14:23;8.63;;;5.97;;
10009;SDS011;5044;48.652;9.250;2022-08-18T10:17:00;9.38;;;6.90;;
10009;SDS011;5044;48.652;9.250;2022-08-18T10:19:40;6.63;;;5.47;;
10009;SDS011;5044;48.652;9.250;2022-08-18T10:22:32;7.90;;;7.10;;
10009;SDS011;5044;48.652;9.250;2022-08-18T10:25:04;10.55;;;8.15;;
10009;SDS011;5044;48.652;9.250;2022-08-18T10:27:45;10.63;;;7.95;;
10009;SDS011;5044;48.652;9.250;2022-08-18T10:36:31;15.05;;;8.27;;
10009;SDS011;5044;48.652;9.250;2022-08-18T10:39:04;6.90;;;5.80;;
10009;SDS011;5044;48.652;9.250;2022-08-18T10:41:34;11.35;;;8.10;;
10009;SDS011;5044;48.652;9.250;2022-08-18T10:46:31;6.25;;;5.28;;
10009;SDS011;5044;48.652;9.250;2022-08-18T10:49:02;4.70;;;4.20;;
10009;SDS011;5044;48.652;9.250;2022-08-18T10:51:40;7.07;;;5.90;;
10009;SDS011;5044;48.652;9.250;2022-08-18T10:54:19;9.80;;;7.40;;
10009;SDS011;5044;48.652;9.250;2022-08-18T10:56:59;9.65;;;6.88;;
10009;SDS011;5044;48.652;9.250;2022-08-18T10:59:37;5.18;;;4.10;;
10009;SDS011;5044;48.652;9.250;2022-08-18T11:02:15;5.80;;;4.05;;
10009;SDS011;5044;48.652;9.250;2022-08-18T11:04:53;10.48;;;6.88;;
10009;SDS011;5044;48.652;9.250;2022-08-18T11:07:21;10.85;;;6.60;;
10009;SDS011;5044;48.652;9.250;2022-08-18T11:09:52;9.48;;;6.90;;
10009;SDS011;5044;48.652;9.250;2022-08-18T11:12:36;10.05;;;7.43;;
10009;SDS011;5044;48.652;9.250;2022-08-18T11:15:25;9.80;;;6.50;;
10009;SDS011;5044;48.652;9.250;2022-08-18T11:18:04;7.70;;;6.32;;
10009;SDS011;5044;48.652;9.250;2022-08-18T11:20:39;10.10;;;5.95;;
10009;SDS011;5044;48.652;9.250;2022-08-18T11:23:10;7.88;;;5.85;;
10009;SDS011;5044;48.652;9.250;2022-08-18T11:25:38;10.77;;;6.30;;
10009;SDS011;5044;48.652;9.250;2022-08-18T11:28:15;7.07;;;5.25;;
10009;SDS011;5044;48.652;9.250;2022-08-18T11:30:43;6.82;;;5.50;;
10009;SDS011;5044;48.652;9.250;2022-08-18T11:33:13;7.03;;;5.18;;
10009;SDS011;5044;48.652;9.250;2022-08-18T11:35:46;6.63;;;4.72;;
10009;SDS011;5044;48.652;9.250;2022-08-18T11:38:14;4.53;;;4.00;;
10009;SDS011;5044;48.652;9.250;2022-08-18T11:40:44;5.68;;;5.07;;
10009;SDS011;5044;48.652;9.250;2022-08-18T11:43:15;5.53;;;5.03;;
10009;SDS011;5044;48.652;9.250;2022-08-18T11:45:48;6.90;;;5.53;;
10009;SDS011;5044;48.652;9.250;2022-08-18T11:48:19;8.18;;;5.50;;
10009;SDS011;5044;48.652;9.250;2022-08-18T11:50:58;6.18;;;5.40;;
10009;SDS011;5044;48.652;9.250;2022-08-18T11:53:40;5.25;;;4.50;;
10009;SDS011;5044;48.652;9.250;2022-08-18T11:56:20;6.85;;;5.13;;
10009;SDS011;5044;48.652;9.250;2022-08-18T11:58:52;11.93;;;5.68;;
10009;SDS011;5044;48.652;9.250;2022-08-18T12:04:15;6.35;;;5.57;;
10009;SDS011;5044;48.652;9.250;2022-08-18T12:06:53;6.07;;;5.05;;
10009;SDS011;5044;48.652;9.250;2022-08-18T12:09:26;5.00;;;4.50;;
10009;SDS011;5044;48.652;9.250;2022-08-18T12:12:01;5.47;;;4.95;;
10009;SDS011;5044;48.652;9.250;2022-08-18T12:17:00;6.20;;;5.60;;
10009;SDS011;5044;48.652;9.250;2022-08-18T12:19:29;7.18;;;5.82;;
10009;SDS011;5044;48.652;9.250;2022-08-18T12:21:56;6.03;;;5.43;;
10009;SDS011;5044;48.652;9.250;2022-08-18T12:24:26;7.70;;;5.07;;
10009;SDS011;5044;48.652;9.250;2022-08-18T12:26:55;7.55;;;6.70;;
10009;SDS011;5044;48.652;9.250;2022-08-18T12:29:23;10.07;;;5.57;;
10009;SDS011;5044;48.652;9.250;2022-08-18T12:31:53;6.00;;;5.40;;
10009;SDS011;5044;48.652;9.250;2022-08-18T12:34:21;8.30;;;6.63;;
10009;SDS011;5044;48.652;9.250;2022-08-18T12:36:50;6.90;;;5.03;;
10009;SDS011;5044;48.652;9.250;2022-08-18T12:39:18;5.85;;;5.13;;
10009;SDS011;5044;48.652;9.250;2022-08-18T12:41:45;6.68;;;6.07;;
10009;SDS011;5044;48.652;9.250;2022-08-18T12:44:12;6.32;;;5.72;;
10009;SDS011;5044;48.652;9.250;2022-08-18T12:46:40;5.70;;;5.07;;
10009;SDS011;5044;48.652;9.250;2022-08-18T12:49:10;6.38;;;5.65;;
10009;SDS011;5044;48.652;9.250;2022-08-18T12:51:41;5.55;;;4.90;;
10009;SDS011;5044;48.652;9.250;2022-08-18T12:54:08;6.03;;;4.93;;
10009;SDS011;5044;48.652;9.250;2022-08-18T12:56:35;6.63;;;5.68;;
10009;SDS011;5044;48.652;9.250;2022-08-18T12:59:03;6.13;;;5.35;;
10009;SDS011;5044;48.652;9.250;2022-08-18T13:01:31;5.03;;;4.53;;
10009;SDS011;5044;48.652;9.250;2022-08-18T13:04:00;5.70;;;4.25;;
10009;SDS011;5044;48.652;9.250;2022-08-18T13:06:29;7.95;;;4.95;;
10009;SDS011;5044;48.652;9.250;2022-08-18T13:08:58;5.53;;;4.88;;
10009;SDS011;5044;48.652;9.250;2022-08-18T13:11:25;4.78;;;4.32;;
10009;SDS011;5044;48.652;9.250;2022-08-18T13:13:52;6.70;;;4.80;;
10009;SDS011;5044;48.652;9.250;2022-08-18T13:16:20;7.75;;;4.65;;
10009;SDS011;5044;48.652;9.250;2022-08-18T13:18:48;7.50;;;5.47;;
10009;SDS011;5044;48.652;9.250;2022-08-18T13:21:15;6.97;;;4.68;;
10009;SDS011;5044;48.652;9.250;2022-08-18T13:23:44;6.07;;;3.75;;
10009;SDS011;5044;48.652;9.250;2022-08-18T13:26:14;6.10;;;4.30;;
10009;SDS011;5044;48.652;9.250;2022-08-18T13:28:44;6.90;;;4.40;;
10009;SDS011;5044;48.652;9.250;2022-08-18T13:31:12;5.47;;;4.25;;
10009;SDS011;5044;48.652;9.250;2022-08-18T13:33:40;7.35;;;4.68;;
10009;SDS011;5044;48.652;9.250;2022-08-18T13:36:07;9.75;;;5.07;;
10009;SDS011;5044;48.652;9.250;2022-08-18T13:38:34;7.05;;;5.93;;
10009;SDS011;5044;48.652;9.250;2022-08-18T13:41:02;5.40;;;4.90;;
10009;SDS011;5044;48.652;9.250;2022-08-18T13:43:30;6.40;;;5.07;;
10009;SDS011;5044;48.652;9.250;2022-08-18T13:46:02;8.93;;;5.25;;
10009;SDS011;5044;48.652;9.250;2022-08-18T13:48:30;6.30;;;4.72;;
10009;SDS011;5044;48.652;9.250;2022-08-18T13:50:57;8.20;;;4.90;;
10009;SDS011;5044;48.652;9.250;2022-08-18T13:53:26;5.32;;;4.82;;
10009;SDS011;5044;48.652;9.250;2022-08-18T13:55:54;6.85;;;4.90;;
10009;SDS011;5044;48.652;9.250;2022-08-18T13:58:25;6.68;;;5.65;;
10009;SDS011;5044;48.652;9.250;2022-08-18T14:00:54;6.00;;;4.55;;
10009;SDS011;5044;48.652;9.250;2022-08-18T14:03:23;5.15;;;4.25;;
10009;SDS011;5044;48.652;9.250;2022-08-18T14:05:50;9.35;;;4.75;;
10009;SDS011;5044;48.652;9.250;2022-08-18T14:08:18;4.70;;;3.63;;
10009;SDS011;5044;48.652;9.250;2022-08-18T14:10:46;7.45;;;4.80;;
10009;SDS011;5044;48.652;9.250;2022-08-18T14:13:16;5.60;;;4.55;;
10009;SDS011;5044;48.652;9.250;2022-08-18T14:15:46;5.47;;;4.75;;
10009;SDS011;5044;48.652;9.250;2022-08-18T14:18:13;8.50;;;4.63;;
10009;SDS011;5044;48.652;9.250;2022-08-18T14:20:41;7.18;;;4.30;;
10009;SDS011;5044;48.652;9.250;2022-08-18T14:23:25;7.45;;;4.30;;
10009;SDS011;5044;48.652;9.250;2022-08-18T14:26:10;7.20;;;4.82;;
10009;SDS011;5044;48.652;9.250;2022-08-18T14:28:54;4.97;;;4.03;;
10009;SDS011;5044;48.652;9.250;2022-08-18T14:31:23;6.03;;;5.15;;
10009;SDS011;5044;48.652;9.250;2022-08-18T14:33:50;7.00;;;5.63;;
10009;SDS011;5044;48.652;9.250;2022-08-18T14:36:18;5.82;;;5.18;;
10009;SDS011;5044;48.652;9.250;2022-08-18T14:38:45;6.18;;;4.60;;
10009;SDS011;5044;48.652;9.250;2022-08-18T14:41:12;8.30;;;3.97;;
10009;SDS011;5044;48.652;9.250;2022-08-18T14:43:41;8.77;;;4.20;;
10009;SDS011;5044;48.652;9.250;2022-08-18T14:46:09;4.45;;;4.05;;
10009;SDS011;5044;48.652;9.250;2022-08-18T14:48:40;9.02;;;4.63;;
10009;SDS011;5044;48.652;9.250;2022-08-18T14:51:07;4.65;;;4.13;;
10009;SDS011;5044;48.652;9.250;2022-08-18T14:53:35;4.18;;;3.78;;
10009;SDS011;5044;48.652;9.250;2022-08-18T14:56:03;4.15;;;3.63;;
10009;SDS011;5044;48.652;9.250;2022-08-18T14:58:31;5.18;;;3.85;;
10009;SDS011;5044;48.652;9.250;2022-08-18T15:01:00;6.15;;;4.45;;
10009;SDS011;5044;48.652;9.250;2022-08-18T15:03:30;4.82;;;4.35;;
10009;SDS011;5044;48.652;9.250;2022-08-18T15:05:59;7.88;;;4.00;;
10009;SDS011;5044;48.652;9.250;2022-08-18T15:08:27;6.15;;;3.75;;
10009;SDS011;5044;48.652;9.250;2022-08-18T15:10:56;3.47;;;3.17;;
10009;SDS011;5044;48.652;9.250;2022-08-18T15:13:23;4.35;;;3.95;;
10009;SDS011;5044;48.652;9.250;2022-08-18T15:15:51;4.57;;;3.63;;
10009;SDS011;5044;48.652;9.250;2022-08-18T15:18:18;6.30;;;3.95;;
10009;SDS011;5044;48.652;9.250;2022-08-18T15:20:45;3.97;;;3.58;;
10009;SDS011;5044;48.652;9.250;2022-08-18T15:23:30;4.07;;;3.72;;
10009;SDS011;5044;48.652;9.250;2022-08-18T15:26:17;4.10;;;3.60;;
10009;SDS011;5044;48.652;9.250;2022-08-18T15:28:49;4.20;;;3.80;;
10009;SDS011;5044;48.652;9.250;2022-08-18T15:31:16;3.55;;;3.25;;
10009;SDS011;5044;48.652;9.250;2022-08-18T15:33:43;3.97;;;3.47;;
10009;SDS011;5044;48.652;9.250;2022-08-18T15:36:10;4.95;;;3.00;;
10009;SDS011;5044;48.652;9.250;2022-08-18T15:38:40;4.85;;;3.70;;
10009;SDS011;5044;48.652;9.250;2022-08-18T15:41:07;4.93;;;4.10;;
10009;SDS011;5044;48.652;9.250;2022-08-18T15:43:35;4.10;;;3.67;;
10009;SDS011;5044;48.652;9.250;2022-08-18T15:46:03;5.25;;;3.38;;
10009;SDS011;5044;48.652;9.250;2022-08-18T15:48:31;4.57;;;3.40;;
10009;SDS011;5044;48.652;9.250;2022-08-18T15:50:58;5.13;;;3.10;;
10009;SDS011;5044;48.652;9.250;2022-08-18T15:53:26;6.43;;;3.05;;
10009;SDS011;5044;48.652;9.250;2022-08-18T15:55:54;3.95;;;3.42;;
10009;SDS011;5044;48.652;9.250;2022-08-18T15:58:21;3.72;;;3.42;;
10009;SDS011;5044;48.652;9.250;2022-08-18T16:00:48;3.80;;;3.50;;
10009;SDS011;5044;48.652;9.250;2022-08-18T16:03:17;4.82;;;3.22;;
10009;SDS011;5044;48.652;9.250;2022-08-18T16:05:46;5.15;;;3.58;;
10009;SDS011;5044;48.652;9.250;2022-08-18T16:10:43;4.43;;;3.30;;
10009;SDS011;5044;48.652;9.250;2022-08-18T16:13:12;4.20;;;3.80;;
10009;SDS011;5044;48.652;9.250;2022-08-18T16:15:40;4.88;;;3.45;;